createdAt,value
2022-08-23T00:00:14.818Z,24.18
2022-08-23T00:02:46.318Z,24.20
2022-08-23T00:05:14.679Z,24.21
2022-08-23T00:07:45.626Z,24.25
2022-08-23T00:10:16.788Z,24.28
2022-08-23T00:12:47.568Z,24.31
2022-08-23T00:15:18.444Z,24.34
2022-08-23T00:17:47.919Z,24.36
2022-08-23T00:20:19.761Z,24.39
2022-08-23T00:22:48.214Z,24.38
2022-08-23T00:25:16.967Z,24.38
2022-08-23T00:27:46.838Z,24.38
2022-08-23T00:30:16.871Z,24.39
2022-08-23T00:32:45.509Z,24.35
2022-08-23T00:35:26.253Z,24.34
2022-08-23T00:38:29.870Z,24.30
2022-08-23T00:40:47.563Z,24.25
2022-08-23T00:43:36.303Z,24.18
2022-08-23T00:46:29.881Z,24.12
2022-08-23T00:48:59.177Z,24.02
2022-08-23T00:51:31.728Z,23.97
2022-08-23T00:54:12.353Z,23.88
2022-08-23T00:56:41.011Z,23.83
2022-08-23T00:59:10.966Z,23.79
2022-08-23T01:01:39.480Z,23.74
2022-08-23T01:04:07.797Z,23.70
2022-08-23T01:06:40.806Z,23.65
2022-08-23T01:09:13.200Z,23.59
2022-08-23T01:11:47.015Z,23.54
2022-08-23T01:14:20.906Z,23.51
2022-08-23T01:16:53.741Z,23.36
2022-08-23T01:19:28.220Z,23.32
2022-08-23T01:22:05.910Z,23.28
2022-08-23T01:25:06.811Z,23.23
2022-08-23T01:27:25.582Z,23.18
2022-08-23T01:29:53.844Z,23.17
2022-08-23T01:32:22.378Z,23.10
2022-08-23T01:34:51.529Z,23.01
2022-08-23T01:37:22.439Z,22.98
2022-08-23T01:39:55.430Z,23.01
2022-08-23T01:42:24.662Z,22.98
2022-08-23T01:44:53.054Z,22.98
2022-08-23T01:47:21.413Z,22.97
2022-08-23T01:49:49.792Z,22.95
2022-08-23T01:52:19.680Z,22.92
2022-08-23T01:54:47.987Z,22.94
2022-08-23T01:57:17.829Z,22.94
2022-08-23T01:59:46.246Z,22.95
2022-08-23T02:02:15.102Z,22.95
2022-08-23T02:04:43.745Z,22.93
2022-08-23T02:07:12.111Z,22.93
2022-08-23T02:09:41.624Z,22.92
2022-08-23T02:12:11.643Z,22.90
2022-08-23T02:14:43.695Z,22.88
2022-08-23T02:17:19.974Z,22.86
2022-08-23T02:19:48.551Z,22.86
2022-08-23T02:22:16.881Z,22.85
2022-08-23T02:24:48.217Z,22.84
2022-08-23T02:27:18.056Z,22.84
2022-08-23T02:29:49.843Z,22.82
2022-08-23T02:32:21.383Z,22.83
2022-08-23T02:34:59.882Z,22.80
2022-08-23T02:37:34.709Z,22.78
2022-08-23T02:40:05.555Z,22.78
2022-08-23T02:42:34.096Z,22.76
2022-08-23T02:45:05.442Z,22.76
2022-08-23T02:47:36.811Z,22.77
2022-08-23T02:50:16.038Z,22.76
2022-08-23T02:52:45.750Z,22.70
2022-08-23T02:55:14.669Z,22.69
2022-08-23T02:57:43.067Z,22.67
2022-08-23T03:00:16.425Z,22.64
2022-08-23T03:02:45.516Z,22.61
2022-08-23T03:05:15.743Z,22.57
2022-08-23T03:07:44.317Z,22.54
2022-08-23T03:10:13.591Z,22.52
2022-08-23T03:12:48.194Z,22.49
2022-08-23T03:15:18.082Z,22.49
2022-08-23T03:17:46.390Z,22.46
2022-08-23T03:20:14.831Z,22.46
2022-08-23T03:22:48.418Z,22.44
2022-08-23T03:25:26.058Z,22.41
2022-08-23T03:28:13.039Z,22.38
2022-08-23T03:30:46.999Z,22.36
2022-08-23T03:33:17.067Z,22.34
2022-08-23T03:35:47.484Z,22.31
2022-08-23T03:38:17.285Z,22.27
2022-08-23T03:40:46.359Z,22.26
2022-08-23T03:43:15.275Z,22.22
2022-08-23T03:45:43.526Z,22.20
2022-08-23T03:48:13.991Z,22.17
2022-08-23T03:50:42.467Z,22.14
2022-08-23T03:53:12.055Z,22.11
2022-08-23T03:55:43.390Z,22.09
2022-08-23T03:58:16.431Z,22.06
2022-08-23T04:00:45.125Z,22.04
2022-08-23T04:03:14.851Z,22.02
2022-08-23T04:06:16.029Z,21.95
2022-08-23T04:08:46.314Z,21.94
2022-08-23T04:11:15.092Z,21.93
2022-08-23T04:13:53.556Z,21.91
2022-08-23T04:16:22.005Z,21.91
2022-08-23T04:18:51.948Z,21.91
2022-08-23T04:21:23.951Z,21.89
2022-08-23T04:23:54.132Z,21.90
2022-08-23T04:26:23.652Z,21.89
2022-08-23T04:28:57.032Z,21.87
2022-08-23T04:31:26.649Z,21.84
2022-08-23T04:33:58.036Z,21.82
2022-08-23T04:36:34.643Z,21.82
2022-08-23T04:39:03.872Z,21.81
2022-08-23T04:41:49.852Z,21.80
2022-08-23T04:44:18.329Z,21.76
2022-08-23T04:46:48.743Z,21.80
2022-08-23T04:49:23.023Z,21.82
2022-08-23T04:51:54.254Z,21.83
2022-08-23T04:54:24.076Z,21.81
2022-08-23T04:57:21.354Z,21.84
2022-08-23T04:59:50.625Z,21.87
2022-08-23T05:02:18.947Z,21.91
2022-08-23T05:04:48.892Z,21.91
2022-08-23T05:07:17.472Z,21.93
2022-08-23T05:09:45.977Z,21.94
2022-08-23T05:12:14.894Z,21.95
2022-08-23T05:14:44.336Z,21.99
2022-08-23T05:17:16.889Z,22.01
2022-08-23T05:19:47.111Z,22.04
2022-08-23T05:22:18.125Z,22.09
2022-08-23T05:25:15.965Z,22.13
2022-08-23T05:27:44.848Z,22.19
2022-08-23T05:30:15.138Z,22.23
2022-08-23T05:32:44.455Z,22.27
2022-08-23T05:35:14.321Z,22.33
2022-08-23T05:37:47.436Z,22.40
2022-08-23T05:40:16.973Z,22.47
2022-08-23T05:42:59.635Z,22.54
2022-08-23T05:45:28.343Z,22.62
2022-08-23T05:47:57.468Z,22.68
2022-08-23T05:50:38.260Z,22.76
2022-08-23T05:53:10.723Z,22.82
2022-08-23T05:55:39.608Z,22.88
2022-08-23T05:58:24.226Z,22.99
2022-08-23T06:00:52.774Z,23.06
2022-08-23T06:03:21.193Z,23.13
2022-08-23T06:05:49.876Z,23.20
2022-08-23T06:08:19.557Z,23.29
2022-08-23T06:10:47.947Z,23.40
2022-08-23T06:13:24.253Z,23.49
2022-08-23T06:15:52.628Z,23.53
2022-08-23T06:18:21.074Z,23.60
2022-08-23T06:20:59.430Z,23.67
2022-08-23T06:23:42.593Z,23.76
2022-08-23T06:26:12.396Z,23.87
2022-08-23T06:28:50.889Z,23.95
2022-08-23T06:31:41.968Z,24.05
2022-08-23T06:34:18.362Z,24.18
2022-08-23T06:37:05.228Z,24.23
2022-08-23T06:39:53.917Z,24.30
2022-08-23T06:42:45.460Z,24.36
2022-08-23T06:45:17.512Z,24.50
2022-08-23T06:47:49.691Z,24.60
2022-08-23T06:50:18.380Z,24.69
2022-08-23T06:53:06.935Z,24.80
2022-08-23T06:56:03.583Z,24.91
2022-08-23T06:58:42.367Z,25.08
2022-08-23T07:01:46.531Z,25.20
2022-08-23T07:04:30.007Z,25.25
2022-08-23T07:07:08.298Z,25.38
2022-08-23T07:09:39.323Z,25.49
2022-08-23T07:12:11.110Z,25.60
2022-08-23T07:14:43.199Z,25.77
2022-08-23T07:17:12.608Z,25.94
2022-08-23T07:19:44.190Z,26.08
2022-08-23T07:22:15.686Z,26.11
2022-08-23T07:24:44.445Z,26.36
2022-08-23T07:27:14.152Z,26.64
2022-08-23T07:29:53.770Z,27.07
2022-08-23T07:32:22.096Z,27.41
2022-08-23T07:34:52.272Z,27.55
2022-08-23T07:37:20.964Z,27.74
2022-08-23T07:39:49.328Z,27.76
2022-08-23T07:42:23.456Z,27.91
2022-08-23T07:44:57.042Z,27.97
2022-08-23T07:47:29.718Z,28.25
2022-08-23T07:50:00.351Z,28.49
2022-08-23T07:52:29.832Z,28.65
2022-08-23T07:54:59.014Z,28.80
2022-08-23T07:57:37.810Z,28.91
2022-08-23T08:00:28.880Z,29.14
2022-08-23T08:03:13.292Z,29.16
2022-08-23T08:06:01.084Z,29.21
2022-08-23T08:08:29.542Z,29.38
2022-08-23T08:10:58.379Z,29.61
2022-08-23T08:13:28.243Z,29.75
2022-08-23T08:15:57.815Z,29.76
2022-08-23T08:18:29.021Z,29.75
2022-08-23T08:21:16.709Z,29.87
2022-08-23T08:24:08.426Z,30.03
2022-08-23T08:26:46.071Z,30.04
2022-08-23T08:29:16.638Z,30.15
2022-08-23T08:31:51.313Z,30.23
2022-08-23T08:34:22.047Z,30.34
2022-08-23T08:36:53.801Z,30.28
2022-08-23T08:39:27.356Z,30.38
2022-08-23T08:42:10.070Z,30.66
2022-08-23T08:44:46.227Z,30.84
2022-08-23T08:47:23.234Z,30.97
2022-08-23T08:50:00.003Z,30.99
2022-08-23T08:52:32.261Z,31.00
2022-08-23T08:55:09.231Z,30.91
2022-08-23T08:57:41.210Z,31.02
2022-08-23T09:00:15.639Z,31.28
2022-08-23T09:02:46.177Z,31.50
2022-08-23T09:05:18.050Z,31.88
2022-08-23T09:07:58.595Z,32.24
2022-08-23T09:10:52.261Z,32.38
2022-08-23T09:13:46.015Z,32.39
2022-08-23T09:16:31.458Z,32.82
2022-08-23T09:19:02.640Z,33.11
2022-08-23T09:21:41.136Z,33.06
2022-08-23T09:24:10.178Z,33.33
2022-08-23T09:26:54.965Z,33.56
2022-08-23T09:29:27.077Z,33.92
2022-08-23T09:32:02.365Z,34.31
2022-08-23T09:34:43.602Z,34.34
2022-08-23T09:37:19.188Z,34.44
2022-08-23T09:39:51.648Z,34.70
2022-08-23T09:42:32.175Z,35.22
2022-08-23T09:45:01.357Z,35.41
2022-08-23T09:47:43.300Z,35.54
2022-08-23T09:50:25.278Z,35.47
2022-08-23T09:52:59.009Z,35.69
2022-08-23T09:55:32.912Z,35.93
2022-08-23T09:58:03.224Z,36.08
2022-08-23T10:00:35.052Z,36.19
2022-08-23T10:03:27.473Z,36.25
2022-08-23T10:06:03.281Z,36.24
2022-08-23T10:08:42.843Z,36.54
2022-08-23T10:11:20.170Z,37.00
2022-08-23T10:13:49.289Z,37.22
2022-08-23T10:16:30.718Z,36.97
2022-08-23T10:19:16.090Z,37.17
2022-08-23T10:21:52.562Z,37.13
2022-08-23T10:24:31.276Z,37.10
2022-08-23T10:27:29.240Z,36.55
2022-08-23T10:30:05.412Z,36.06
2022-08-23T10:32:56.401Z,35.44
2022-08-23T10:35:33.230Z,35.09
2022-08-23T10:38:33.836Z,34.73
2022-08-23T10:41:19.047Z,34.74
2022-08-23T10:43:55.258Z,34.88
2022-08-23T10:46:24.174Z,34.88
2022-08-23T10:48:56.394Z,34.90
2022-08-23T10:51:32.398Z,34.97
2022-08-23T10:54:06.416Z,35.28
2022-08-23T10:56:36.217Z,35.37
2022-08-23T10:59:10.601Z,35.57
2022-08-23T11:01:46.891Z,36.16
2022-08-23T11:04:25.090Z,36.67
2022-08-23T11:07:17.773Z,37.55
2022-08-23T11:09:53.753Z,37.94
2022-08-23T11:12:29.487Z,38.03
2022-08-23T11:15:25.949Z,38.26
2022-08-23T11:17:59.548Z,38.91
2022-08-23T11:20:59.747Z,38.97
2022-08-23T11:23:54.228Z,38.56
2022-08-23T11:27:06.360Z,38.51
2022-08-23T11:29:41.411Z,38.54
2022-08-23T11:32:46.533Z,38.74
2022-08-23T11:35:43.035Z,39.29
2022-08-23T11:38:13.318Z,39.51
2022-08-23T11:41:18.708Z,39.38
2022-08-23T11:43:49.464Z,39.29
2022-08-23T11:46:32.285Z,39.11
2022-08-23T11:49:40.102Z,39.13
2022-08-23T11:52:30.917Z,39.50
2022-08-23T11:55:42.395Z,39.82
2022-08-23T11:58:23.282Z,39.63
2022-08-23T12:00:59.571Z,39.78
2022-08-23T12:03:34.255Z,39.56
2022-08-23T12:06:13.269Z,39.62
2022-08-23T12:08:55.840Z,39.71
2022-08-23T12:11:26.246Z,40.03
2022-08-23T12:13:59.126Z,40.01
2022-08-23T12:16:38.460Z,40.23
2022-08-23T12:19:26.057Z,40.37
2022-08-23T12:21:56.179Z,40.39
2022-08-23T12:24:29.751Z,40.28
2022-08-23T12:27:12.881Z,40.24
2022-08-23T12:29:53.870Z,40.00
2022-08-23T12:32:31.166Z,39.98
2022-08-23T12:35:11.735Z,39.81
2022-08-23T12:37:46.341Z,39.73
2022-08-23T12:40:23.350Z,40.02
2022-08-23T12:42:51.641Z,40.28
2022-08-23T12:45:23.702Z,40.47
2022-08-23T12:47:57.934Z,40.60
2022-08-23T12:50:33.151Z,40.73
2022-08-23T12:53:04.206Z,40.32
2022-08-23T12:55:35.097Z,39.92
2022-08-23T12:58:04.310Z,39.78
2022-08-23T13:00:36.514Z,39.65
2022-08-23T13:03:08.479Z,39.35
2022-08-23T13:05:43.666Z,39.19
2022-08-23T13:08:16.608Z,39.12
2022-08-23T13:10:46.211Z,39.17
2022-08-23T13:13:16.246Z,39.29
2022-08-23T13:15:54.197Z,39.27
2022-08-23T13:18:28.340Z,39.17
2022-08-23T13:21:26.511Z,39.02
2022-08-23T13:23:57.678Z,39.14
2022-08-23T13:26:41.697Z,39.04
2022-08-23T13:29:13.481Z,38.70
2022-08-23T13:32:04.103Z,38.56
2022-08-23T13:34:37.002Z,38.70
2022-08-23T13:37:24.098Z,39.20
2022-08-23T13:39:55.963Z,39.50
2022-08-23T13:42:32.894Z,39.17
2022-08-23T13:45:09.326Z,38.66
2022-08-23T13:47:39.373Z,38.47
2022-08-23T13:50:16.255Z,38.26
2022-08-23T13:53:11.612Z,38.02
2022-08-23T13:55:35.616Z,38.33
2022-08-23T13:58:03.744Z,38.68
2022-08-23T14:00:31.747Z,38.52
2022-08-23T14:03:01.207Z,38.52
2022-08-23T14:05:29.487Z,38.37
2022-08-23T14:08:01.521Z,38.44
2022-08-23T14:10:29.672Z,38.45
2022-08-23T14:12:57.909Z,38.30
2022-08-23T14:18:15.358Z,37.74
2022-08-23T14:20:44.451Z,37.38
2022-08-23T14:23:14.192Z,37.33
2022-08-23T14:25:42.444Z,37.40
2022-08-23T14:28:10.483Z,37.41
2022-08-23T14:30:38.618Z,37.63
2022-08-23T14:33:06.837Z,37.79
2022-08-23T14:35:36.390Z,37.73
2022-08-23T14:38:05.267Z,37.51
2022-08-23T14:40:34.335Z,37.31
2022-08-23T14:43:02.634Z,37.29
2022-08-23T14:45:30.746Z,37.42
2022-08-23T14:47:58.845Z,37.54
2022-08-23T14:50:27.800Z,37.44
2022-08-23T14:52:58.371Z,37.32
2022-08-23T14:55:27.690Z,37.14
2022-08-23T14:57:55.693Z,37.05
2022-08-23T15:00:23.854Z,36.89
2022-08-23T15:02:51.921Z,36.74
2022-08-23T15:05:20.150Z,36.82
2022-08-23T15:07:48.555Z,37.21
2022-08-23T15:13:21.625Z,38.03
2022-08-23T15:15:54.735Z,37.84
2022-08-23T15:18:23.190Z,37.50
2022-08-23T15:20:52.163Z,37.12
2022-08-23T15:23:21.598Z,36.80
2022-08-23T15:25:52.065Z,36.62
2022-08-23T15:28:22.019Z,36.52
2022-08-23T15:30:51.530Z,36.38
2022-08-23T15:33:23.495Z,36.29
2022-08-23T15:35:55.741Z,36.27
2022-08-23T15:38:25.724Z,36.29
2022-08-23T15:40:55.734Z,36.16
2022-08-23T15:43:33.902Z,36.17
2022-08-23T15:46:06.454Z,36.26
2022-08-23T15:48:38.018Z,36.28
2022-08-23T15:51:07.244Z,36.38
2022-08-23T15:53:35.539Z,36.41
2022-08-23T15:56:10.517Z,36.33
2022-08-23T15:58:39.861Z,36.24
2022-08-23T16:01:08.299Z,36.10
2022-08-23T16:03:36.892Z,35.97
2022-08-23T16:06:05.874Z,35.86
2022-08-23T16:08:38.255Z,35.78
2022-08-23T16:11:12.170Z,35.67
2022-08-23T16:13:42.746Z,35.59
2022-08-23T16:16:17.130Z,35.50
2022-08-23T16:18:45.350Z,35.39
2022-08-23T16:21:14.027Z,35.29
2022-08-23T16:23:43.099Z,35.16
2022-08-23T16:26:16.414Z,34.99
2022-08-23T16:28:46.553Z,34.80
2022-08-23T16:31:15.388Z,34.61
2022-08-23T16:33:43.795Z,34.41
2022-08-23T16:36:12.254Z,34.25
2022-08-23T16:38:40.509Z,34.14
2022-08-23T16:41:08.698Z,34.04
2022-08-23T16:43:38.129Z,33.97
2022-08-23T16:46:06.491Z,33.90
2022-08-23T16:48:34.965Z,33.87
2022-08-23T16:51:03.102Z,33.80
2022-08-23T16:53:31.152Z,33.76
2022-08-23T16:55:59.201Z,33.74
2022-08-23T16:58:28.042Z,33.74
2022-08-23T17:00:57.565Z,33.71
2022-08-23T17:03:27.176Z,33.62
2022-08-23T17:05:55.314Z,33.55
2022-08-23T17:08:23.370Z,33.48
2022-08-23T17:10:51.688Z,33.41
2022-08-23T17:13:19.754Z,33.28
2022-08-23T17:15:47.813Z,33.11
2022-08-23T17:18:17.238Z,32.96
2022-08-23T17:20:45.633Z,32.82
2022-08-23T17:23:13.980Z,32.68
2022-08-23T17:25:44.470Z,32.53
2022-08-23T17:28:12.554Z,32.35
2022-08-23T17:30:40.733Z,32.18
2022-08-23T17:33:09.485Z,32.01
2022-08-23T17:35:39.153Z,31.90
2022-08-23T17:38:08.385Z,31.80
2022-08-23T17:40:40.143Z,31.69
2022-08-23T17:43:08.498Z,31.59
2022-08-23T17:45:42.087Z,31.53
2022-08-23T17:48:10.919Z,31.50
2022-08-23T17:50:41.373Z,31.48
2022-08-23T17:53:09.405Z,31.42
2022-08-23T17:55:38.251Z,31.33
2022-08-23T17:58:07.269Z,31.23
2022-08-23T18:00:37.984Z,31.12
2022-08-23T18:03:06.840Z,31.01
2022-08-23T18:05:42.959Z,30.91
2022-08-23T18:08:11.291Z,30.81
2022-08-23T18:10:39.625Z,30.69
2022-08-23T18:13:07.823Z,30.59
2022-08-23T18:15:36.034Z,30.47
2022-08-23T18:18:04.445Z,30.35
2022-08-23T18:20:32.707Z,30.26
2022-08-23T18:23:02.229Z,30.16
2022-08-23T18:25:30.808Z,30.08
2022-08-23T18:28:07.313Z,29.98
2022-08-23T18:30:39.510Z,29.90
2022-08-23T18:33:12.456Z,29.81
2022-08-23T18:35:41.315Z,29.75
2022-08-23T18:38:12.540Z,29.70
2022-08-23T18:40:46.239Z,29.63
2022-08-23T18:43:16.270Z,29.59
2022-08-23T18:45:45.932Z,29.56
2022-08-23T18:48:14.071Z,29.51
2022-08-23T18:50:43.008Z,29.46
2022-08-23T18:53:12.834Z,29.39
2022-08-23T18:55:41.202Z,29.31
2022-08-23T18:58:09.357Z,29.20
2022-08-23T19:00:38.994Z,29.15
2022-08-23T19:03:07.813Z,29.09
2022-08-23T19:05:41.772Z,29.05
2022-08-23T19:08:12.801Z,28.98
2022-08-23T19:10:42.544Z,28.94
2022-08-23T19:13:10.987Z,28.91
2022-08-23T19:15:40.558Z,28.89
2022-08-23T19:18:08.750Z,28.87
2022-08-23T19:20:38.042Z,28.84
2022-08-23T19:23:06.522Z,28.79
2022-08-23T19:25:38.601Z,28.77
2022-08-23T19:28:07.254Z,28.72
2022-08-23T19:30:35.677Z,28.65
2022-08-23T19:33:04.239Z,28.63
2022-08-23T19:35:32.623Z,28.59
2022-08-23T19:38:00.659Z,28.54
2022-08-23T19:40:28.800Z,28.48
2022-08-23T19:42:59.825Z,28.41
2022-08-23T19:45:28.074Z,28.35
2022-08-23T19:48:00.578Z,28.31
2022-08-23T19:50:29.526Z,28.28
2022-08-23T19:52:57.841Z,28.26
2022-08-23T19:55:27.351Z,28.25
2022-08-23T19:57:55.774Z,28.21
2022-08-23T20:00:27.107Z,28.16
2022-08-23T20:02:55.463Z,28.10
2022-08-23T20:05:23.954Z,28.04
2022-08-23T20:07:52.211Z,28.00
2022-08-23T20:10:20.767Z,27.98
2022-08-23T20:12:48.944Z,27.96
2022-08-23T20:15:16.971Z,27.93
2022-08-23T20:17:46.398Z,27.91
2022-08-23T20:20:14.857Z,27.88
2022-08-23T20:23:00.374Z,27.81
2022-08-23T20:25:29.202Z,27.82
2022-08-23T20:27:57.321Z,27.84
2022-08-23T20:30:25.522Z,27.82
2022-08-23T20:32:55.009Z,27.82
2022-08-23T20:35:23.210Z,27.86
2022-08-23T20:37:51.783Z,27.88
2022-08-23T20:40:20.539Z,27.93
2022-08-23T20:42:48.698Z,27.91
2022-08-23T20:45:16.744Z,28.03
2022-08-23T20:47:44.916Z,28.09
2022-08-23T20:50:14.488Z,28.15
2022-08-23T20:52:43.029Z,28.23
2022-08-23T20:55:12.334Z,28.30
2022-08-23T20:57:40.414Z,28.40
2022-08-23T21:00:09.757Z,28.44
2022-08-23T21:02:37.805Z,28.44
2022-08-23T21:05:06.999Z,28.52
2022-08-23T21:07:36.893Z,28.56
2022-08-23T21:10:05.977Z,28.61
2022-08-23T21:12:35.056Z,28.64
2022-08-23T21:15:03.164Z,28.72
2022-08-23T21:17:31.185Z,28.75
2022-08-23T21:19:59.740Z,28.77
2022-08-23T21:22:32.251Z,28.78
2022-08-23T21:25:02.197Z,28.80
2022-08-23T21:27:31.227Z,28.82
2022-08-23T21:29:59.250Z,28.83
2022-08-23T21:32:27.482Z,28.82
2022-08-23T21:34:56.134Z,28.84
2022-08-23T21:37:24.317Z,28.83
2022-08-23T21:39:52.943Z,28.83
2022-08-23T21:42:23.825Z,28.84
2022-08-23T21:44:53.653Z,28.82
2022-08-23T21:47:21.708Z,28.80
2022-08-23T21:49:49.818Z,28.80
2022-08-23T21:52:17.854Z,28.79
2022-08-23T21:54:45.961Z,28.77
2022-08-23T21:57:14.060Z,28.75
2022-08-23T21:59:43.770Z,28.75
2022-08-23T22:02:11.985Z,28.72
2022-08-23T22:04:40.033Z,28.69
2022-08-23T22:07:08.113Z,28.67
2022-08-23T22:09:36.365Z,28.67
2022-08-23T22:12:05.438Z,28.65
2022-08-23T22:14:34.548Z,28.63
2022-08-23T22:17:04.359Z,28.63
2022-08-23T22:19:32.395Z,28.58
2022-08-23T22:22:01.070Z,28.56
2022-08-23T22:24:29.117Z,28.54
2022-08-23T22:26:57.235Z,28.52
2022-08-23T22:29:25.383Z,28.48
2022-08-23T22:31:53.462Z,28.44
2022-08-23T22:34:23.033Z,28.42
2022-08-23T22:36:51.939Z,28.37
2022-08-23T22:39:21.795Z,28.34
2022-08-23T22:41:50.409Z,28.28
2022-08-23T22:44:18.553Z,28.29
2022-08-23T22:46:46.752Z,28.30
2022-08-23T22:49:14.874Z,28.27
2022-08-23T22:51:44.535Z,28.26
2022-08-23T22:54:14.341Z,28.20
2022-08-23T22:56:45.230Z,28.19
2022-08-23T22:59:14.450Z,28.16
2022-08-23T23:01:47.746Z,28.09
2022-08-23T23:04:17.515Z,28.11
2022-08-23T23:06:47.025Z,28.11
2022-08-23T23:09:15.205Z,28.08
2022-08-23T23:11:44.307Z,28.05
2022-08-23T23:14:13.234Z,28.03
2022-08-23T23:16:42.315Z,27.98
2022-08-23T23:19:28.273Z,27.95
2022-08-23T23:21:59.546Z,27.88
2022-08-23T23:24:29.860Z,27.84
2022-08-23T23:26:58.918Z,27.79
2022-08-23T23:29:27.176Z,27.74
2022-08-23T23:31:56.505Z,27.71
2022-08-23T23:34:25.088Z,27.65
2022-08-23T23:36:55.875Z,27.60
2022-08-23T23:39:25.962Z,27.53
2022-08-23T23:41:54.658Z,27.47
2022-08-23T23:44:30.774Z,27.43
2022-08-23T23:47:00.779Z,27.40
2022-08-23T23:49:33.057Z,27.35
2022-08-23T23:52:02.968Z,27.31
2022-08-23T23:54:33.806Z,27.24
2022-08-23T23:57:02.163Z,27.20
2022-08-23T23:59:30.377Z,27.14
